Terminal Aerodrome Forecast
Issued by NWS Omaha/Valley, NE

Home | Current Version | Previous Version | Graphics & Text | Print | Product List | Glossary On
Versions: 1 2 3 4 5 6 7 8 9 10 11 12
000
FTUS43 KOAX 270520
TAFOFK
TAF
KOFK 270520Z 2706/2806 VRB05KT P6SM SCT250
     FM271500 21010KT P6SM FEW250
     FM271800 19012G18KT P6SM SCT250
     FM272200 16008KT P6SM SCT250=

USA.gov is the U.S. government's official web portal to all federal, state and local government web resources and services.